createdAt,value
2019-04-20T00:02:31.621Z,33.30
2019-04-20T00:05:19.084Z,33.30
2019-04-20T00:08:09.097Z,33.40
2019-04-20T00:11:02.632Z,33.40
2019-04-20T00:13:52.943Z,33.40
2019-04-20T00:16:31.706Z,33.50
2019-04-20T00:19:26.457Z,33.60
2019-04-20T00:22:14.883Z,33.70
2019-04-20T00:25:21.876Z,33.80
2019-04-20T00:28:25.216Z,33.80
2019-04-20T00:31:16.298Z,33.80
2019-04-20T00:33:55.876Z,34.00
2019-04-20T00:36:34.906Z,34.00
2019-04-20T00:39:23.794Z,34.00
2019-04-20T00:42:13.336Z,34.10
2019-04-20T00:45:05.639Z,34.10
2019-04-20T00:47:56.280Z,34.30
2019-04-20T00:50:54.248Z,34.30
2019-04-20T00:53:33.862Z,34.40
2019-04-20T00:56:14.163Z,34.50
2019-04-20T00:59:14.423Z,34.50
2019-04-20T01:02:10.289Z,34.60
2019-04-20T01:04:59.437Z,34.60
2019-04-20T01:07:50.574Z,34.60
2019-04-20T01:10:38.501Z,34.60
2019-04-20T01:13:23.907Z,34.70
2019-04-20T01:16:25.213Z,34.70
2019-04-20T01:18:59.393Z,34.70
2019-04-20T01:21:52.576Z,34.80
2019-04-20T01:24:43.329Z,34.80
2019-04-20T01:27:41.181Z,34.80
2019-04-20T01:30:25.338Z,34.80
2019-04-20T01:33:16.400Z,35.00
2019-04-20T01:36:08.738Z,34.90
2019-04-20T01:38:56.453Z,35.00
2019-04-20T01:41:28.932Z,35.10
2019-04-20T01:44:18.838Z,35.20
2019-04-20T01:47:06.358Z,35.20
2019-04-20T01:49:58.573Z,35.30
2019-04-20T01:52:50.374Z,35.30
2019-04-20T01:55:49.397Z,35.40
2019-04-20T01:58:50.632Z,35.40
2019-04-20T02:01:39.161Z,35.40
2019-04-20T02:04:34.655Z,35.50
2019-04-20T02:07:25.561Z,35.40
2019-04-20T02:10:10.532Z,36.00
2019-04-20T02:12:59.585Z,35.60
2019-04-20T02:15:49.442Z,35.60
2019-04-20T02:18:44.097Z,35.60
2019-04-20T02:21:38.236Z,35.70
2019-04-20T02:24:10.982Z,35.70
2019-04-20T02:26:57.895Z,35.80
2019-04-20T02:30:18.651Z,35.70
2019-04-20T02:33:17.219Z,35.90
2019-04-20T02:41:57.420Z,36.00
2019-04-20T02:45:28.934Z,36.00
2019-04-20T02:50:30.435Z,36.00
2019-04-20T02:53:20.383Z,36.00
2019-04-20T02:56:08.607Z,36.10
2019-04-20T02:59:03.922Z,36.20
2019-04-20T03:01:43.534Z,36.20
2019-04-20T03:04:20.264Z,36.30
2019-04-20T03:07:11.612Z,36.30
2019-04-20T03:10:05.558Z,36.30
2019-04-20T03:12:58.155Z,36.50
2019-04-20T03:15:44.464Z,36.50
2019-04-20T03:18:32.025Z,36.50
2019-04-20T03:21:27.255Z,36.60
2019-04-20T03:24:12.972Z,36.60
2019-04-20T03:27:09.916Z,36.60
2019-04-20T03:30:03.659Z,36.70
2019-04-20T03:33:20.984Z,36.70
2019-04-20T03:35:42.920Z,36.70
2019-04-20T03:38:29.146Z,36.80
2019-04-20T03:41:09.544Z,36.90
2019-04-20T03:43:45.603Z,36.80
2019-04-20T03:46:41.993Z,36.90
2019-04-20T03:49:48.333Z,36.90
2019-04-20T03:52:36.560Z,36.90
2019-04-20T03:55:39.698Z,36.90
2019-04-20T03:58:37.790Z,37.00
2019-04-20T04:02:10.439Z,37.00
2019-04-20T04:04:56.313Z,37.00
2019-04-20T04:07:33.489Z,37.10
2019-04-20T04:10:24.981Z,37.10
2019-04-20T04:13:09.542Z,37.20
2019-04-20T04:16:02.643Z,37.20
2019-04-20T04:18:49.638Z,37.20
2019-04-20T04:21:49.800Z,37.30
2019-04-20T04:24:31.692Z,37.30
2019-04-20T04:27:32.671Z,37.40
2019-04-20T04:30:14.901Z,37.40
2019-04-20T04:33:33.995Z,37.40
2019-04-20T04:35:51.610Z,37.50
2019-04-20T04:38:51.793Z,37.50
2019-04-20T04:41:31.034Z,37.60
2019-04-20T04:44:14.646Z,37.60
2019-04-20T04:46:57.620Z,37.60
2019-04-20T04:49:42.958Z,37.70
2019-04-20T04:52:38.286Z,37.70
2019-04-20T04:55:25.683Z,37.80
2019-04-20T04:58:04.701Z,37.80
2019-04-20T05:00:51.475Z,37.90
2019-04-20T05:04:05.623Z,38.00
2019-04-20T05:06:37.391Z,38.60
2019-04-20T05:09:16.749Z,38.00
2019-04-20T05:12:10.307Z,38.00
2019-04-20T05:15:01.952Z,38.10
2019-04-20T05:18:01.526Z,38.10
2019-04-20T05:20:54.721Z,38.30
2019-04-20T05:23:47.887Z,38.30
2019-04-20T05:26:58.315Z,38.40
2019-04-20T05:29:25.407Z,38.40
2019-04-20T05:32:15.912Z,38.40
2019-04-20T05:35:24.075Z,38.50
2019-04-20T05:38:11.677Z,38.60
2019-04-20T05:40:55.804Z,38.50
2019-04-20T05:43:56.237Z,38.70
2019-04-20T05:46:45.898Z,38.90
2019-04-20T05:49:34.799Z,38.90
2019-04-20T05:52:42.070Z,39.00
2019-04-20T05:55:19.044Z,39.00
2019-04-20T05:58:01.986Z,39.10
2019-04-20T06:00:57.050Z,39.20
2019-04-20T06:03:38.400Z,39.20
2019-04-20T06:06:27.372Z,39.30
2019-04-20T06:09:18.266Z,39.40
2019-04-20T06:12:18.017Z,39.40
2019-04-20T06:15:07.972Z,39.50
2019-04-20T06:18:03.865Z,39.50
2019-04-20T06:20:52.609Z,39.60
2019-04-20T06:23:50.859Z,39.60
2019-04-20T06:29:33.346Z,39.80
2019-04-20T06:32:27.178Z,39.90
2019-04-20T06:35:09.234Z,40.00
2019-04-20T06:38:03.196Z,40.10
2019-04-20T06:40:57.776Z,40.30
2019-04-20T06:43:40.849Z,40.40
2019-04-20T06:46:26.833Z,40.40
2019-04-20T06:49:19.188Z,40.40
2019-04-20T06:52:12.753Z,40.60
2019-04-20T06:55:05.644Z,40.70
2019-04-20T06:58:05.911Z,40.70
2019-04-20T07:00:55.343Z,40.70
2019-04-20T07:03:53.186Z,40.90
2019-04-20T07:06:48.316Z,41.00
2019-04-20T07:09:27.188Z,41.00
2019-04-20T07:12:02.896Z,41.00
2019-04-20T07:14:43.970Z,41.00
2019-04-20T07:20:56.711Z,41.00
2019-04-20T07:23:43.282Z,40.90
2019-04-20T07:26:31.818Z,41.10
2019-04-20T07:29:21.017Z,41.20
2019-04-20T07:32:01.796Z,41.10
2019-04-20T07:34:56.786Z,41.10
2019-04-20T07:38:10.038Z,41.10
2019-04-20T07:40:37.437Z,41.10
2019-04-20T07:43:27.724Z,41.10
2019-04-20T07:48:15.243Z,41.20
2019-04-20T07:50:56.823Z,41.50
2019-04-20T07:53:45.289Z,41.70
2019-04-20T07:56:46.303Z,41.90
2019-04-20T07:59:18.770Z,41.90
2019-04-20T08:02:46.909Z,41.90
2019-04-20T08:05:39.242Z,41.80
2019-04-20T08:08:34.821Z,41.60
2019-04-20T08:11:23.277Z,41.50
2019-04-20T08:14:18.114Z,41.30
2019-04-20T08:17:14.492Z,41.10
2019-04-20T08:19:47.303Z,40.70
2019-04-20T08:22:41.036Z,40.50
2019-04-20T08:25:22.503Z,40.10
2019-04-20T08:28:28.461Z,39.80
2019-04-20T08:31:35.732Z,39.60
2019-04-20T08:34:35.380Z,39.20
2019-04-20T20:28:14.590Z,28.70
2019-04-20T20:31:05.090Z,28.60
2019-04-20T20:33:56.503Z,28.60
2019-04-20T20:36:38.310Z,28.60
2019-04-20T20:39:24.171Z,28.60
2019-04-20T20:42:20.638Z,28.60
2019-04-20T20:45:06.936Z,28.70
2019-04-20T20:48:04.529Z,29.00
2019-04-20T20:50:48.759Z,28.80
2019-04-20T20:53:35.330Z,28.90
2019-04-20T20:56:18.499Z,28.90
2019-04-20T20:59:04.184Z,29.00
2019-04-20T21:01:52.362Z,29.10
2019-04-20T21:04:33.462Z,29.10
2019-04-20T21:07:20.607Z,29.20
2019-04-20T21:10:10.383Z,29.20
2019-04-20T21:13:01.418Z,29.30
2019-04-20T21:15:52.271Z,29.40
2019-04-20T21:18:50.389Z,29.40
2019-04-20T21:21:38.762Z,29.50
2019-04-20T21:24:21.153Z,29.50
2019-04-20T21:27:13.315Z,29.50
2019-04-20T21:29:59.634Z,29.60
2019-04-20T21:32:49.109Z,29.60
2019-04-20T21:35:39.334Z,29.80
2019-04-20T21:38:24.675Z,29.70
2019-04-20T21:41:16.210Z,29.80
2019-04-20T21:44:06.781Z,29.90
2019-04-20T21:46:54.356Z,30.00
2019-04-20T21:49:51.530Z,30.00
2019-04-20T21:52:36.145Z,30.10
2019-04-20T21:55:16.334Z,30.20
2019-04-20T21:58:05.231Z,30.30
2019-04-20T22:01:09.464Z,30.40
2019-04-20T22:03:45.760Z,30.50
2019-04-20T22:06:34.161Z,30.60
2019-04-20T22:09:25.125Z,30.60
2019-04-20T22:12:09.816Z,30.70
2019-04-20T22:15:05.032Z,30.90
2019-04-20T22:17:46.414Z,30.90
2019-04-20T22:20:46.828Z,30.90
2019-04-20T22:23:36.485Z,31.00
2019-04-20T22:26:22.417Z,31.20
2019-04-20T22:28:58.775Z,31.20
2019-04-20T22:31:52.218Z,31.20
2019-04-20T22:34:35.235Z,31.20
2019-04-20T22:37:28.357Z,31.20
2019-04-20T22:40:21.892Z,31.30
2019-04-20T22:43:02.037Z,31.30
2019-04-20T22:45:52.567Z,31.40
2019-04-20T22:48:44.984Z,31.50
2019-04-20T22:51:39.995Z,31.50
2019-04-20T22:54:28.023Z,31.60
2019-04-20T22:57:36.250Z,31.70
2019-04-20T23:00:22.242Z,31.80
2019-04-20T23:03:05.392Z,31.50
2019-04-20T23:12:23.794Z,31.90
2019-04-20T23:15:10.389Z,31.90
2019-04-20T23:17:58.006Z,31.90
2019-04-20T23:20:45.861Z,32.00
2019-04-20T23:23:33.930Z,32.10
2019-04-20T23:26:27.958Z,32.10
2019-04-20T23:29:11.174Z,32.20
2019-04-20T23:32:03.038Z,32.30
2019-04-20T23:34:50.046Z,32.40
2019-04-20T23:37:36.995Z,32.50
2019-04-20T23:40:23.578Z,32.50
2019-04-20T23:43:22.728Z,32.50
2019-04-20T23:46:22.278Z,32.60
2019-04-20T23:49:37.579Z,32.60
2019-04-20T23:52:38.502Z,32.60
2019-04-20T23:55:08.538Z,32.70
2019-04-20T23:58:00.672Z,32.70
